Time;durP1;ratioP1;P1;durP2;ratioP2;P2;SDS_P1;SDS_P2;PMS_P1;PMS_P2;Temp;Humidity;BMP_temperature;BMP_pressure;BME280_temperature;BME280_humidity;BME280_pressure;Samples;Min_cycle;Max_cycle;Signal;HPM_P1;HPM_P2
2023/06/22 00:00:19;;;;;;;;;;;22.30;55.40;;;;;;6306848;22;19915;-77
2023/06/22 00:02:44;;;;;;;;;;;22.30;55.50;;;;;;6306439;22;19960;-77
2023/06/22 00:05:10;;;;;;;;;;;22.30;55.30;;;;;;6306447;22;19965;-76
2023/06/22 00:07:35;;;;;;;;;;;22.20;55.30;;;;;;6306425;22;20237;-78
2023/06/22 00:10:01;;;;;;;;;;;22.20;55.50;;;;;;6306315;22;19911;-77
2023/06/22 00:12:26;;;;;;;;;;;22.20;55.60;;;;;;6305635;22;20342;-77
2023/06/22 00:14:52;;;;;;;;;;;22.10;56.00;;;;;;6306467;22;20237;-78
2023/06/22 00:17:18;;;;;;;;;;;22.20;56.10;;;;;;6305874;22;19907;-78
2023/06/22 00:19:46;;;;;;;;;;;22.10;55.80;;;;;;6306214;22;20293;-77
2023/06/22 00:22:12;;;;;;;;;;;22.10;55.80;;;;;;6305581;22;19907;-77
2023/06/22 00:24:37;;;;;;;;;;;22.10;55.60;;;;;;6305633;22;19918;-78
2023/06/22 00:27:05;;;;;;;;;;;22.10;55.50;;;;;;6305736;22;19985;-77
2023/06/22 00:29:30;;;;;;;;;;;22.10;55.40;;;;;;6305971;22;19915;-77
2023/06/22 00:31:55;;;;;;;;;;;22.00;55.30;;;;;;6306264;22;20367;-78
2023/06/22 00:34:21;;;;;;;;;;;22.00;55.30;;;;;;6305873;22;19962;-79
2023/06/22 00:36:46;;;;;;;;;;;22.00;55.20;;;;;;6305851;22;19903;-77
2023/06/22 00:39:12;;;;;;;;;;;22.00;55.20;;;;;;6305812;22;19911;-77
2023/06/22 00:41:37;;;;;;;;;;;22.00;55.30;;;;;;6305643;22;19914;-77
2023/06/22 00:44:03;;;;;;;;;;;22.00;55.40;;;;;;6304940;22;20213;-77
2023/06/22 00:46:29;;;;;;;;;;;22.00;55.50;;;;;;6305864;22;20317;-77
2023/06/22 00:48:57;;;;;;;;;;;22.00;55.50;;;;;;6305813;22;19917;-78
2023/06/22 00:51:24;;;;;;;;;;;22.00;55.50;;;;;;6305542;22;19918;-78
2023/06/22 00:53:50;;;;;;;;;;;22.00;55.40;;;;;;6305723;22;19933;-77
2023/06/22 00:56:19;;;;;;;;;;;22.00;55.40;;;;;;6305594;22;19957;-77
2023/06/22 00:58:47;;;;;;;;;;;22.10;55.50;;;;;;6305940;22;19937;-77
2023/06/22 01:01:14;;;;;;;;;;;22.10;55.50;;;;;;6305860;22;19972;-78
2023/06/22 01:03:39;;;;;;;;;;;22.10;55.50;;;;;;6305611;22;19914;-77
2023/06/22 01:06:15;;;;;;;;;;;22.10;55.40;;;;;;6305487;22;19903;-77
2023/06/22 01:08:48;;;;;;;;;;;22.20;55.50;;;;;;6305912;22;20339;-78
2023/06/22 01:11:17;;;;;;;;;;;22.10;55.40;;;;;;6278234;22;19903;-78
2023/06/22 01:13:59;;;;;;;;;;;22.10;55.40;;;;;;6305496;22;19986;-78
2023/06/22 01:16:32;;;;;;;;;;;22.10;55.40;;;;;;6305339;22;19903;-77
2023/06/22 01:19:16;;;;;;;;;;;22.00;55.40;;;;;;6305683;22;19915;-75
2023/06/22 01:21:42;;;;;;;;;;;22.00;55.40;;;;;;6304277;22;20176;-76
2023/06/22 01:24:26;;;;;;;;;;;22.00;55.40;;;;;;6304912;22;19910;-76
2023/06/22 01:27:04;;;;;;;;;;;22.00;55.40;;;;;;6304974;22;19933;-76
2023/06/22 01:29:30;;;;;;;;;;;22.00;55.50;;;;;;6305816;22;20388;-76
2023/06/22 01:31:57;;;;;;;;;;;22.00;55.50;;;;;;6305067;22;20374;-72
2023/06/22 01:34:22;;;;;;;;;;;22.00;55.50;;;;;;6304765;22;19917;-75
2023/06/22 01:36:49;;;;;;;;;;;21.90;55.70;;;;;;6304963;22;19903;-76
2023/06/22 01:39:14;;;;;;;;;;;21.90;55.80;;;;;;6305028;22;19911;-75
2023/06/22 01:41:41;;;;;;;;;;;21.90;55.80;;;;;;6304944;22;20309;-76
2023/06/22 01:44:08;;;;;;;;;;;22.00;55.80;;;;;;6305729;22;20300;-76
2023/06/22 01:46:34;;;;;;;;;;;21.90;55.80;;;;;;6305486;22;20295;-76
2023/06/22 01:49:00;;;;;;;;;;;21.90;55.90;;;;;;6305158;22;19923;-76
2023/06/22 01:51:26;;;;;;;;;;;21.90;55.80;;;;;;6305319;22;20326;-75
2023/06/22 01:53:51;;;;;;;;;;;22.00;55.80;;;;;;6305335;22;20336;-76
2023/06/22 01:56:16;;;;;;;;;;;21.90;55.90;;;;;;6305027;22;20291;-75
2023/06/22 01:58:46;;;;;;;;;;;22.00;56.00;;;;;;6306449;22;20343;-76
2023/06/22 02:01:13;;;;;;;;;;;22.00;56.00;;;;;;6307036;22;20237;-75
2023/06/22 02:03:48;;;;;;;;;;;22.00;56.20;;;;;;6307524;22;20285;-76
2023/06/22 02:06:16;;;;;;;;;;;22.00;56.10;;;;;;6307172;22;19994;-77
2023/06/22 02:08:44;;;;;;;;;;;22.00;56.00;;;;;;6307488;22;20257;-73
2023/06/22 02:11:11;;;;;;;;;;;21.90;56.00;;;;;;6307098;22;19973;-77
2023/06/22 02:13:37;;;;;;;;;;;21.90;55.90;;;;;;6307266;22;20249;-77
2023/06/22 02:16:03;;;;;;;;;;;21.90;56.10;;;;;;6307300;22;19960;-76
2023/06/22 02:18:29;;;;;;;;;;;21.90;56.20;;;;;;6279790;22;19907;-77
2023/06/22 02:20:54;;;;;;;;;;;21.80;56.20;;;;;;6307813;22;19907;-78
2023/06/22 02:23:19;;;;;;;;;;;21.80;56.20;;;;;;6279560;22;19930;-77
2023/06/22 02:25:45;;;;;;;;;;;21.70;56.20;;;;;;6307826;22;20321;-75
2023/06/22 02:28:11;;;;;;;;;;;21.80;56.30;;;;;;6307411;22;20344;-76
2023/06/22 02:30:36;;;;;;;;;;;21.70;56.30;;;;;;6307729;22;19913;-76
2023/06/22 02:33:02;;;;;;;;;;;21.70;56.50;;;;;;6306482;22;19985;-76
2023/06/22 02:35:31;;;;;;;;;;;21.60;56.50;;;;;;6307559;22;19907;-77
2023/06/22 02:37:57;;;;;;;;;;;21.60;56.50;;;;;;6308945;22;20226;-77
2023/06/22 02:40:23;;;;;;;;;;;21.60;56.60;;;;;;6307453;22;19907;-77
2023/06/22 02:42:48;;;;;;;;;;;21.60;56.60;;;;;;6307186;22;20236;-72
2023/06/22 02:45:14;;;;;;;;;;;21.70;56.90;;;;;;6307763;22;20233;-77
2023/06/22 02:47:39;;;;;;;;;;;21.70;56.90;;;;;;6306011;22;20366;-77
2023/06/22 02:50:05;;;;;;;;;;;21.70;56.80;;;;;;6306693;22;20278;-75
2023/06/22 02:52:30;;;;;;;;;;;21.80;56.90;;;;;;6306590;22;19910;-76
2023/06/22 02:54:56;;;;;;;;;;;21.70;56.90;;;;;;6306705;22;19915;-76
2023/06/22 02:57:21;;;;;;;;;;;21.80;56.80;;;;;;6306964;22;19907;-77
2023/06/22 02:59:46;;;;;;;;;;;21.80;56.80;;;;;;6306628;22;19980;-75
2023/06/22 03:02:12;;;;;;;;;;;21.80;56.80;;;;;;6306433;22;19914;-75
2023/06/22 03:04:37;;;;;;;;;;;21.80;56.70;;;;;;6307098;22;19911;-76
2023/06/22 03:07:03;;;;;;;;;;;21.80;56.70;;;;;;6307147;22;19903;-76
2023/06/22 03:09:28;;;;;;;;;;;21.80;56.70;;;;;;6306706;22;19933;-76
2023/06/22 03:11:54;;;;;;;;;;;21.80;56.70;;;;;;6307029;22;19903;-76
2023/06/22 03:14:19;;;;;;;;;;;21.80;56.60;;;;;;6307335;22;20268;-76
2023/06/22 03:16:45;;;;;;;;;;;21.80;56.60;;;;;;6306747;22;20002;-77
2023/06/22 03:19:10;;;;;;;;;;;21.80;56.60;;;;;;6306691;22;19911;-76
2023/06/22 03:21:38;;;;;;;;;;;21.80;56.60;;;;;;6306453;22;19903;-76
2023/06/22 03:24:04;;;;;;;;;;;21.80;56.70;;;;;;6306615;22;20309;-76
2023/06/22 03:26:29;;;;;;;;;;;21.70;56.60;;;;;;6306538;22;19992;-75
2023/06/22 03:28:55;;;;;;;;;;;21.70;56.60;;;;;;6306603;22;20225;-76
2023/06/22 03:31:21;;;;;;;;;;;21.70;56.60;;;;;;6306146;22;19981;-77
2023/06/22 03:33:48;;;;;;;;;;;21.70;56.60;;;;;;6306320;22;19903;-76
2023/06/22 03:36:13;;;;;;;;;;;21.70;56.80;;;;;;6306238;22;19982;-76
2023/06/22 03:38:39;;;;;;;;;;;21.70;57.00;;;;;;6306515;22;20225;-76
2023/06/22 03:41:04;;;;;;;;;;;21.80;57.10;;;;;;6306378;22;19933;-75
2023/06/22 03:43:30;;;;;;;;;;;21.80;57.20;;;;;;6306300;22;20386;-77
2023/06/22 03:45:55;;;;;;;;;;;21.80;57.10;;;;;;6279103;22;19911;-76
2023/06/22 03:48:20;;;;;;;;;;;21.90;57.20;;;;;;6305966;22;19907;-76
2023/06/22 03:50:46;;;;;;;;;;;22.00;57.30;;;;;;6306607;22;19938;-76
2023/06/22 03:53:12;;;;;;;;;;;22.10;57.40;;;;;;6305664;22;19942;-77
2023/06/22 03:55:47;;;;;;;;;;;22.20;57.50;;;;;;6305958;22;20066;-75
2023/06/22 03:58:12;;;;;;;;;;;22.40;57.70;;;;;;6306307;22;20317;-76
2023/06/22 04:00:38;;;;;;;;;;;22.70;57.70;;;;;;6306516;22;19915;-73
2023/06/22 04:03:03;;;;;;;;;;;22.80;57.60;;;;;;6305204;22;19906;-76
2023/06/22 04:05:29;;;;;;;;;;;23.00;57.50;;;;;;6276534;22;20175;-76
2023/06/22 04:07:54;;;;;;;;;;;23.10;57.40;;;;;;6303587;22;19910;-75
2023/06/22 04:10:19;;;;;;;;;;;23.20;57.30;;;;;;6303069;22;19918;-74
2023/06/22 04:12:45;;;;;;;;;;;23.30;57.20;;;;;;6303378;22;19910;-76
2023/06/22 04:15:11;;;;;;;;;;;23.30;57.10;;;;;;6275993;22;19911;-76
2023/06/22 04:17:37;;;;;;;;;;;23.40;56.90;;;;;;6277183;22;19911;-76
2023/06/22 04:20:03;;;;;;;;;;;23.40;56.80;;;;;;6306222;22;19911;-76
2023/06/22 04:22:29;;;;;;;;;;;23.40;56.80;;;;;;6304986;22;19929;-76
2023/06/22 04:24:55;;;;;;;;;;;23.50;56.80;;;;;;6305811;22;19934;-76
2023/06/22 04:27:22;;;;;;;;;;;23.50;56.60;;;;;;6305845;22;19907;-76
2023/06/22 04:29:48;;;;;;;;;;;23.60;56.60;;;;;;6306188;22;19911;-76
2023/06/22 04:32:17;;;;;;;;;;;23.70;56.60;;;;;;6304832;22;20317;-76
2023/06/22 04:34:42;;;;;;;;;;;23.80;56.50;;;;;;6304657;22;19946;-77
2023/06/22 04:37:08;;;;;;;;;;;23.80;56.50;;;;;;6305431;22;20271;-76
2023/06/22 04:39:33;;;;;;;;;;;23.90;56.40;;;;;;6302878;22;19914;-76
2023/06/22 04:42:02;;;;;;;;;;;24.10;56.60;;;;;;6305280;22;19918;-77
2023/06/22 04:44:27;;;;;;;;;;;24.30;56.60;;;;;;6306067;22;19911;-76
2023/06/22 04:46:54;;;;;;;;;;;24.50;56.40;;;;;;6305500;22;19907;-76
2023/06/22 04:49:20;;;;;;;;;;;24.60;56.20;;;;;;6305788;22;20368;-76
2023/06/22 04:51:46;;;;;;;;;;;24.70;55.90;;;;;;6277694;22;19902;-76
2023/06/22 04:54:11;;;;;;;;;;;24.80;55.90;;;;;;6305096;22;20275;-77
2023/06/22 04:56:37;;;;;;;;;;;25.00;55.80;;;;;;6305199;22;20316;-76
2023/06/22 04:59:03;;;;;;;;;;;25.10;55.60;;;;;;6305495;22;20334;-77
2023/06/22 05:01:30;;;;;;;;;;;25.30;55.40;;;;;;6305541;22;19903;-76
2023/06/22 05:03:56;;;;;;;;;;;25.40;55.20;;;;;;6277383;22;19911;-76
2023/06/22 05:06:25;;;;;;;;;;;25.60;55.00;;;;;;6305121;22;20283;-76
2023/06/22 05:08:57;;;;;;;;;;;25.80;54.90;;;;;;6278065;22;19956;-76
2023/06/22 05:11:26;;;;;;;;;;;26.10;54.70;;;;;;6305606;22;19903;-76
2023/06/22 05:13:51;;;;;;;;;;;26.20;54.30;;;;;;6304909;22;20222;-76
2023/06/22 05:16:17;;;;;;;;;;;26.50;53.90;;;;;;6306051;22;19903;-76
2023/06/22 05:18:43;;;;;;;;;;;26.70;53.80;;;;;;6305099;22;19907;-76
2023/06/22 05:21:08;;;;;;;;;;;27.20;54.30;;;;;;6304644;22;20282;-76
2023/06/22 05:23:34;;;;;;;;;;;27.70;53.80;;;;;;6304773;22;19907;-76
2023/06/22 05:25:59;;;;;;;;;;;28.10;53.10;;;;;;6305242;22;19960;-77
2023/06/22 05:28:25;;;;;;;;;;;28.40;51.90;;;;;;6304592;22;19902;-74
2023/06/22 05:30:50;;;;;;;;;;;28.50;51.10;;;;;;6306184;22;20317;-76
2023/06/22 05:33:16;;;;;;;;;;;28.70;50.40;;;;;;6304021;22;20344;-73
2023/06/22 05:35:41;;;;;;;;;;;28.70;49.90;;;;;;6304168;22;19921;-76
2023/06/22 05:38:07;;;;;;;;;;;28.80;49.80;;;;;;6305793;22;19903;-76
2023/06/22 05:40:32;;;;;;;;;;;28.90;49.40;;;;;;6304408;22;20236;-76
2023/06/22 05:43:00;;;;;;;;;;;29.00;49.00;;;;;;6303169;22;19910;-75
2023/06/22 05:45:25;;;;;;;;;;;29.00;48.60;;;;;;6306247;22;19911;-76
2023/06/22 05:47:51;;;;;;;;;;;29.00;48.40;;;;;;6304304;22;19930;-76
2023/06/22 05:50:16;;;;;;;;;;;29.10;48.30;;;;;;6305103;22;19911;-76
2023/06/22 05:52:42;;;;;;;;;;;29.00;47.80;;;;;;6304026;22;19903;-76
2023/06/22 05:55:07;;;;;;;;;;;29.00;47.70;;;;;;6305728;22;19915;-76
2023/06/22 05:57:35;;;;;;;;;;;29.00;47.50;;;;;;6277389;22;22232;-76
2023/06/22 06:00:00;;;;;;;;;;;29.00;47.80;;;;;;6305738;22;19986;-72
2023/06/22 06:02:25;;;;;;;;;;;29.30;48.50;;;;;;6305610;22;19911;-76
2023/06/22 06:04:52;;;;;;;;;;;29.80;48.60;;;;;;6305720;22;19949;-76
2023/06/22 06:07:18;;;;;;;;;;;30.20;47.60;;;;;;6303201;22;19911;-77
2023/06/22 06:09:43;;;;;;;;;;;30.40;46.90;;;;;;6304781;22;19907;-75
2023/06/22 06:12:09;;;;;;;;;;;30.60;46.20;;;;;;6305190;22;20240;-75
2023/06/22 06:14:34;;;;;;;;;;;30.70;45.80;;;;;;6305639;22;19960;-75
2023/06/22 06:16:59;;;;;;;;;;;30.90;45.40;;;;;;6305639;22;19934;-77
2023/06/22 06:19:25;;;;;;;;;;;31.10;45.30;;;;;;6305588;22;20210;-75
2023/06/22 06:21:51;;;;;;;;;;;31.60;45.30;;;;;;6277599;22;19910;-75
2023/06/22 06:24:16;;;;;;;;;;;32.10;44.40;;;;;;6305306;22;19907;-75
2023/06/22 06:26:41;;;;;;;;;;;32.70;43.90;;;;;;6305213;22;19949;-75
2023/06/22 06:29:07;;;;;;;;;;;33.30;43.20;;;;;;6305136;22;19966;-76
2023/06/22 06:31:33;;;;;;;;;;;34.00;42.60;;;;;;6305550;22;19914;-77
2023/06/22 06:33:58;;;;;;;;;;;34.70;41.70;;;;;;6305579;22;19994;-76
2023/06/22 06:36:24;;;;;;;;;;;35.40;40.60;;;;;;6305080;22;19942;-75
2023/06/22 06:38:49;;;;;;;;;;;35.80;39.10;;;;;;6304897;22;20336;-76
2023/06/22 06:41:15;;;;;;;;;;;36.20;38.00;;;;;;6305121;22;19911;-76
2023/06/22 06:43:42;;;;;;;;;;;36.40;37.30;;;;;;6305350;22;19907;-75
2023/06/22 06:46:08;;;;;;;;;;;36.50;36.10;;;;;;6306776;22;20390;-75
2023/06/22 06:48:33;;;;;;;;;;;36.60;35.70;;;;;;6280024;22;19907;-75
2023/06/22 06:50:59;;;;;;;;;;;36.50;35.50;;;;;;6307156;22;19911;-76
2023/06/22 06:53:24;;;;;;;;;;;36.40;35.40;;;;;;6306957;22;19907;-75
2023/06/22 06:55:49;;;;;;;;;;;36.30;35.30;;;;;;6306994;22;19986;-76
2023/06/22 06:58:16;;;;;;;;;;;36.10;35.40;;;;;;6307080;22;19915;-76
2023/06/22 07:00:43;;;;;;;;;;;36.10;35.30;;;;;;6307499;22;19903;-76
2023/06/22 07:03:08;;;;;;;;;;;36.00;35.30;;;;;;6306867;22;19915;-76
2023/06/22 07:05:35;;;;;;;;;;;36.00;35.20;;;;;;6307651;22;19903;-76
2023/06/22 07:08:00;;;;;;;;;;;35.80;35.30;;;;;;6306847;22;20272;-77
2023/06/22 07:10:26;;;;;;;;;;;35.70;35.40;;;;;;6307418;22;19910;-77
2023/06/22 07:12:51;;;;;;;;;;;35.50;35.60;;;;;;6306859;22;19915;-76
2023/06/22 07:15:17;;;;;;;;;;;35.30;35.80;;;;;;6307175;22;19903;-77
2023/06/22 07:17:42;;;;;;;;;;;35.20;35.90;;;;;;6306688;22;19965;-76
2023/06/22 07:20:14;;;;;;;;;;;35.00;36.00;;;;;;6307450;22;19903;-77
2023/06/22 07:22:40;;;;;;;;;;;34.80;36.20;;;;;;6306790;22;20262;-76
2023/06/22 07:25:09;;;;;;;;;;;34.50;36.40;;;;;;6307195;22;20402;-76
2023/06/22 07:27:38;;;;;;;;;;;34.30;36.70;;;;;;6306782;22;20383;-76
2023/06/22 07:30:04;;;;;;;;;;;34.20;36.80;;;;;;6306872;22;19902;-76
2023/06/22 07:32:29;;;;;;;;;;;33.90;37.10;;;;;;6306774;22;20344;-77
2023/06/22 07:34:55;;;;;;;;;;;33.70;37.50;;;;;;6306822;22;19930;-77
2023/06/22 07:37:21;;;;;;;;;;;33.40;37.70;;;;;;6306602;22;19949;-77
2023/06/22 07:39:46;;;;;;;;;;;33.20;38.10;;;;;;6306897;22;19903;-76
2023/06/22 07:42:12;;;;;;;;;;;33.00;38.40;;;;;;6306676;22;19922;-77
2023/06/22 07:44:37;;;;;;;;;;;32.80;38.70;;;;;;6306883;22;19903;-75
2023/06/22 07:47:02;;;;;;;;;;;32.80;39.00;;;;;;6278900;22;20248;-77
2023/06/22 07:49:29;;;;;;;;;;;32.70;39.20;;;;;;6306760;22;20419;-76
2023/06/22 07:51:54;;;;;;;;;;;32.60;39.20;;;;;;6306305;22;19931;-77
2023/06/22 07:54:20;;;;;;;;;;;32.60;39.30;;;;;;6306319;22;19907;-77
2023/06/22 07:56:46;;;;;;;;;;;32.60;39.20;;;;;;6279185;22;19907;-76
2023/06/22 07:59:11;;;;;;;;;;;32.70;39.20;;;;;;6306886;22;19932;-77
2023/06/22 08:01:37;;;;;;;;;;;32.60;39.10;;;;;;6306256;22;19946;-77
2023/06/22 08:04:02;;;;;;;;;;;32.50;39.20;;;;;;6306373;22;19934;-77
2023/06/22 08:06:29;;;;;;;;;;;32.50;39.20;;;;;;6306179;22;19907;-77
2023/06/22 08:08:58;;;;;;;;;;;32.40;39.20;;;;;;6306369;22;19907;-77
2023/06/22 08:11:25;;;;;;;;;;;32.20;39.20;;;;;;6306232;22;20286;-77
2023/06/22 08:13:51;;;;;;;;;;;32.00;39.50;;;;;;6306243;22;19907;-76
2023/06/22 08:16:16;;;;;;;;;;;31.90;40.00;;;;;;6306551;22;20305;-77
2023/06/22 08:18:42;;;;;;;;;;;31.80;40.40;;;;;;6306206;22;19961;-77
2023/06/22 08:21:07;;;;;;;;;;;31.80;40.60;;;;;;6305975;22;19914;-77
2023/06/22 08:23:32;;;;;;;;;;;31.80;40.60;;;;;;6278590;22;20349;-77
2023/06/22 08:25:58;;;;;;;;;;;31.80;40.80;;;;;;6306110;22;19965;-77
2023/06/22 08:28:23;;;;;;;;;;;31.80;41.00;;;;;;6306262;22;19907;-77
2023/06/22 08:30:49;;;;;;;;;;;31.80;41.10;;;;;;6306833;22;20214;-77
2023/06/22 08:33:14;;;;;;;;;;;31.80;41.20;;;;;;6306099;22;20222;-77
2023/06/22 08:35:40;;;;;;;;;;;31.90;41.30;;;;;;6306445;22;19972;-77
2023/06/22 08:38:05;;;;;;;;;;;32.20;41.60;;;;;;6305863;22;19980;-76
2023/06/22 08:40:31;;;;;;;;;;;32.40;41.70;;;;;;6306482;22;19964;-77
2023/06/22 08:42:56;;;;;;;;;;;32.60;42.00;;;;;;6305942;22;19911;-76
2023/06/22 08:45:21;;;;;;;;;;;32.80;41.60;;;;;;6306596;22;19993;-77
2023/06/22 08:47:47;;;;;;;;;;;32.80;41.80;;;;;;6305636;22;19933;-77
2023/06/22 08:50:13;;;;;;;;;;;33.10;41.80;;;;;;6306141;22;19913;-77
2023/06/22 08:52:41;;;;;;;;;;;33.40;41.00;;;;;;6305757;22;20317;-73
2023/06/22 08:55:07;;;;;;;;;;;33.70;40.50;;;;;;6305458;22;19964;-76
2023/06/22 08:57:32;;;;;;;;;;;34.00;39.60;;;;;;6305708;22;19907;-76
2023/06/22 08:59:58;;;;;;;;;;;34.20;39.10;;;;;;6278635;22;19911;-76
2023/06/22 09:02:31;;;;;;;;;;;34.40;38.40;;;;;;6305847;22;19961;-77
2023/06/22 09:04:57;;;;;;;;;;;34.50;37.80;;;;;;6306189;22;20309;-77
2023/06/22 09:07:24;;;;;;;;;;;34.50;37.50;;;;;;6305152;22;20332;-77
2023/06/22 09:09:50;;;;;;;;;;;34.40;37.50;;;;;;6305807;22;19932;-76
2023/06/22 09:12:16;;;;;;;;;;;34.40;37.70;;;;;;6305280;22;19956;-78
2023/06/22 09:14:41;;;;;;;;;;;34.40;37.50;;;;;;6305991;22;19945;-77
2023/06/22 09:17:07;;;;;;;;;;;34.40;37.50;;;;;;6304952;22;19913;-77
2023/06/22 09:19:32;;;;;;;;;;;34.60;37.40;;;;;;6305466;22;19907;-76
2023/06/22 09:21:58;;;;;;;;;;;34.50;37.10;;;;;;6305575;22;19968;-77
2023/06/22 09:24:23;;;;;;;;;;;34.80;37.70;;;;;;6305540;22;20301;-77
2023/06/22 09:26:50;;;;;;;;;;;35.00;37.20;;;;;;6305590;22;20312;-77
2023/06/22 09:29:15;;;;;;;;;;;35.20;37.00;;;;;;6305723;22;19907;-77
2023/06/22 09:31:41;;;;;;;;;;;35.30;36.60;;;;;;6278106;22;19914;-77
2023/06/22 09:34:06;;;;;;;;;;;35.40;36.40;;;;;;6305558;22;19906;-77
2023/06/22 09:36:32;;;;;;;;;;;35.40;36.20;;;;;;6278100;22;19907;-77
2023/06/22 09:38:58;;;;;;;;;;;35.50;36.10;;;;;;6305736;22;19911;-76
2023/06/22 09:41:24;;;;;;;;;;;35.50;35.80;;;;;;6305418;22;19914;-76
2023/06/22 09:43:50;;;;;;;;;;;35.30;35.70;;;;;;6305320;22;19907;-76
2023/06/22 09:46:15;;;;;;;;;;;35.30;35.80;;;;;;6305435;22;19907;-77
2023/06/22 09:48:41;;;;;;;;;;;35.20;35.60;;;;;;6305231;22;20320;-77
2023/06/22 09:51:06;;;;;;;;;;;35.10;35.70;;;;;;6305286;22;19913;-77
2023/06/22 09:53:32;;;;;;;;;;;35.10;35.60;;;;;;6305779;22;19939;-77
2023/06/22 09:55:57;;;;;;;;;;;35.10;35.80;;;;;;6305011;22;19911;-77
2023/06/22 09:58:23;;;;;;;;;;;35.30;36.00;;;;;;6305566;22;20380;-77
2023/06/22 10:00:48;;;;;;;;;;;35.30;35.40;;;;;;6305901;22;19907;-77
2023/06/22 10:03:14;;;;;;;;;;;35.20;35.60;;;;;;6305217;22;19915;-77
2023/06/22 10:05:39;;;;;;;;;;;35.10;35.50;;;;;;6305761;22;19907;-77
2023/06/22 10:08:04;;;;;;;;;;;35.00;36.00;;;;;;6305298;22;19907;-75
2023/06/22 10:10:30;;;;;;;;;;;35.00;36.20;;;;;;6278411;22;19990;-77
2023/06/22 10:12:57;;;;;;;;;;;35.20;36.40;;;;;;6277903;22;19911;-77
2023/06/22 10:15:22;;;;;;;;;;;35.40;36.40;;;;;;6305632;22;19945;-76
2023/06/22 10:17:48;;;;;;;;;;;35.80;36.10;;;;;;6305409;22;19907;-76
2023/06/22 10:20:14;;;;;;;;;;;36.00;35.90;;;;;;6306449;22;19907;-76
2023/06/22 10:22:40;;;;;;;;;;;36.30;35.70;;;;;;6307486;22;19986;-76
2023/06/22 10:25:06;;;;;;;;;;;36.70;35.60;;;;;;6307807;22;20339;-76
2023/06/22 10:27:32;;;;;;;;;;;37.00;34.90;;;;;;6307514;22;19911;-76
2023/06/22 10:29:57;;;;;;;;;;;37.30;34.90;;;;;;6307531;22;19918;-76
2023/06/22 10:32:22;;;;;;;;;;;37.60;34.30;;;;;;6307052;22;19907;-76
2023/06/22 10:34:48;;;;;;;;;;;37.70;34.00;;;;;;6307431;22;19996;-76
2023/06/22 10:37:13;;;;;;;;;;;37.80;33.60;;;;;;6307176;22;20286;-76
2023/06/22 10:39:39;;;;;;;;;;;37.80;33.70;;;;;;6280009;22;20316;-76
2023/06/22 10:42:04;;;;;;;;;;;37.70;33.20;;;;;;6307037;22;20005;-76
2023/06/22 10:44:30;;;;;;;;;;;37.50;33.40;;;;;;6307016;22;19917;-76
2023/06/22 10:46:55;;;;;;;;;;;37.40;33.70;;;;;;6306852;22;19943;-76
2023/06/22 10:49:21;;;;;;;;;;;37.50;33.70;;;;;;6307066;22;20221;-76
2023/06/22 10:51:46;;;;;;;;;;;37.60;33.70;;;;;;6279642;22;19994;-75
2023/06/22 10:54:13;;;;;;;;;;;37.90;33.60;;;;;;6306818;22;19907;-75
2023/06/22 10:56:39;;;;;;;;;;;38.30;33.30;;;;;;6307286;22;20321;-75
2023/06/22 10:59:05;;;;;;;;;;;38.90;33.00;;;;;;6307007;22;19982;-75
2023/06/22 11:01:31;;;;;;;;;;;39.30;32.00;;;;;;6306742;22;20340;-75
2023/06/22 11:03:56;;;;;;;;;;;39.50;31.40;;;;;;6306936;22;19934;-76
2023/06/22 11:06:22;;;;;;;;;;;39.40;31.10;;;;;;6306867;22;19915;-76
2023/06/22 11:08:48;;;;;;;;;;;39.10;31.20;;;;;;6306958;22;19952;-76
2023/06/22 11:11:13;;;;;;;;;;;38.70;31.70;;;;;;6306913;22;19946;-72
2023/06/22 11:13:38;;;;;;;;;;;38.40;32.10;;;;;;6307145;22;19903;-76
2023/06/22 11:16:04;;;;;;;;;;;38.20;32.50;;;;;;6306868;22;20252;-76
2023/06/22 11:18:31;;;;;;;;;;;38.00;32.80;;;;;;6306923;22;20324;-76
2023/06/22 11:20:56;;;;;;;;;;;37.80;33.00;;;;;;6307384;22;19913;-76
2023/06/22 11:23:22;;;;;;;;;;;37.70;32.90;;;;;;6306468;22;20025;-76
2023/06/22 11:25:47;;;;;;;;;;;37.70;32.90;;;;;;6307407;22;19914;-75
2023/06/22 11:28:13;;;;;;;;;;;37.80;33.10;;;;;;6306984;22;19949;-75
2023/06/22 11:30:38;;;;;;;;;;;37.90;32.90;;;;;;6306779;22;19933;-73
2023/06/22 11:33:03;;;;;;;;;;;38.00;32.90;;;;;;6306547;22;20321;-75
2023/06/22 11:35:29;;;;;;;;;;;38.10;32.70;;;;;;6307048;22;19907;-76
2023/06/22 11:37:56;;;;;;;;;;;38.20;32.50;;;;;;6306679;22;20287;-76
2023/06/22 11:40:22;;;;;;;;;;;38.20;32.30;;;;;;6306910;22;20209;-76
2023/06/22 11:42:48;;;;;;;;;;;38.30;32.20;;;;;;6306814;22;19914;-76
2023/06/22 11:45:13;;;;;;;;;;;38.30;32.20;;;;;;6307016;22;19907;-76
2023/06/22 11:47:39;;;;;;;;;;;38.30;32.00;;;;;;6306385;22;19993;-76
2023/06/22 11:50:05;;;;;;;;;;;38.20;31.80;;;;;;6306898;22;19906;-74
2023/06/22 11:52:30;;;;;;;;;;;38.00;32.10;;;;;;6306265;22;19965;-76
2023/06/22 11:54:55;;;;;;;;;;;37.80;32.40;;;;;;6306419;22;19911;-75
2023/06/22 11:57:21;;;;;;;;;;;37.70;32.20;;;;;;6306545;22;20327;-76
2023/06/22 11:59:46;;;;;;;;;;;37.30;32.10;;;;;;6306766;22;19907;-76
2023/06/22 12:02:12;;;;;;;;;;;37.00;32.70;;;;;;6306202;22;20389;-76
2023/06/22 12:04:37;;;;;;;;;;;36.70;33.00;;;;;;6306674;22;20232;-76
2023/06/22 12:07:03;;;;;;;;;;;36.30;33.60;;;;;;6306205;22;19907;-76
2023/06/22 12:09:28;;;;;;;;;;;36.10;33.90;;;;;;6306573;22;20309;-77
2023/06/22 12:11:54;;;;;;;;;;;35.90;34.20;;;;;;6306918;22;19907;-77
2023/06/22 12:14:19;;;;;;;;;;;35.80;34.40;;;;;;6306431;22;19910;-77
2023/06/22 12:16:45;;;;;;;;;;;35.70;34.80;;;;;;6306310;22;19911;-77
2023/06/22 12:19:11;;;;;;;;;;;35.70;34.80;;;;;;6306717;22;20209;-77
2023/06/22 12:21:37;;;;;;;;;;;35.60;34.70;;;;;;6306336;22;19968;-77
2023/06/22 12:24:02;;;;;;;;;;;35.40;34.80;;;;;;6305866;22;20316;-77
2023/06/22 12:26:28;;;;;;;;;;;35.20;35.20;;;;;;6306820;22;19992;-77
2023/06/22 12:28:53;;;;;;;;;;;35.00;35.40;;;;;;6306934;22;19914;-77
2023/06/22 12:31:19;;;;;;;;;;;34.80;35.70;;;;;;6306093;22;19906;-77
2023/06/22 12:33:44;;;;;;;;;;;34.70;35.90;;;;;;6306678;22;19903;-78
2023/06/22 12:36:09;;;;;;;;;;;34.50;36.50;;;;;;6278804;22;19946;-77
2023/06/22 12:38:35;;;;;;;;;;;34.30;36.60;;;;;;6306164;22;19910;-78
2023/06/22 12:41:00;;;;;;;;;;;34.10;36.90;;;;;;6306184;22;20226;-78
2023/06/22 12:43:26;;;;;;;;;;;33.90;37.50;;;;;;6277939;22;20036;-78
2023/06/22 12:45:51;;;;;;;;;;;33.80;38.10;;;;;;6306617;22;20309;-78
2023/06/22 12:48:17;;;;;;;;;;;33.50;39.30;;;;;;6305959;22;20333;-76
2023/06/22 12:50:42;;;;;;;;;;;33.00;43.50;;;;;;6305911;22;19914;-77
2023/06/22 12:53:08;;;;;;;;;;;32.30;47.40;;;;;;6306057;22;19910;-76
2023/06/22 12:55:33;;;;;;;;;;;31.70;49.70;;;;;;6305992;22;20343;-77
2023/06/22 12:57:58;;;;;;;;;;;31.10;51.70;;;;;;6306023;22;19907;-78
2023/06/22 13:00:24;;;;;;;;;;;30.80;53.50;;;;;;6306290;22;19972;-77
2023/06/22 13:02:49;;;;;;;;;;;30.40;54.80;;;;;;6305679;22;20288;-79
2023/06/22 13:05:15;;;;;;;;;;;30.10;55.90;;;;;;6306314;22;20375;-78
2023/06/22 13:07:42;;;;;;;;;;;29.90;56.90;;;;;;6305597;22;20343;-78
2023/06/22 13:10:08;;;;;;;;;;;29.70;58.10;;;;;;6306053;22;20344;-79
2023/06/22 13:12:33;;;;;;;;;;;29.50;58.60;;;;;;6305956;22;19911;-78
2023/06/22 13:14:59;;;;;;;;;;;29.40;59.90;;;;;;6306257;22;19985;-76
2023/06/22 13:17:24;;;;;;;;;;;29.20;60.70;;;;;;6305783;22;19964;-72
2023/06/22 13:19:49;;;;;;;;;;;28.90;61.50;;;;;;6306105;22;19911;-68
2023/06/22 13:22:31;;;;;;;;;;;28.60;62.30;;;;;;6305720;22;19911;-68
2023/06/22 13:24:56;;;;;;;;;;;28.30;63.10;;;;;;6306154;22;20237;-68
2023/06/22 13:27:22;;;;;;;;;;;28.10;64.50;;;;;;6305772;22;19910;-70
2023/06/22 13:29:47;;;;;;;;;;;28.00;65.20;;;;;;6278518;22;19926;-70
2023/06/22 13:32:13;;;;;;;;;;;27.80;65.90;;;;;;6305840;22;19907;-70
2023/06/22 13:34:38;;;;;;;;;;;27.80;66.40;;;;;;6306252;22;19906;-71
2023/06/22 13:37:04;;;;;;;;;;;27.70;66.90;;;;;;6305807;22;19907;-71
2023/06/22 13:39:29;;;;;;;;;;;27.60;67.30;;;;;;6305870;22;19986;-70
2023/06/22 13:41:54;;;;;;;;;;;27.60;67.60;;;;;;6305387;22;20389;-69
2023/06/22 13:44:22;;;;;;;;;;;27.50;67.80;;;;;;6305533;22;19917;-72
2023/06/22 13:46:47;;;;;;;;;;;27.40;68.10;;;;;;6305425;22;19977;-72
2023/06/22 13:49:13;;;;;;;;;;;27.20;68.90;;;;;;6305721;22;19945;-73
2023/06/22 13:51:38;;;;;;;;;;;27.10;69.50;;;;;;6305666;22;19967;-73
2023/06/22 13:54:03;;;;;;;;;;;27.00;70.00;;;;;;6305242;22;19914;-72
2023/06/22 13:56:29;;;;;;;;;;;26.90;70.30;;;;;;6305343;22;19911;-71
2023/06/22 13:58:54;;;;;;;;;;;26.80;70.30;;;;;;6305568;22;19909;-71
2023/06/22 14:01:20;;;;;;;;;;;26.50;70.00;;;;;;6305319;22;19915;-71
2023/06/22 14:03:46;;;;;;;;;;;26.30;70.70;;;;;;6305480;22;19993;-72
2023/06/22 14:06:12;;;;;;;;;;;26.20;71.10;;;;;;6305939;22;19946;-69
2023/06/22 14:08:37;;;;;;;;;;;26.00;71.00;;;;;;6305443;22;19903;-69